createdAt,value
2023-03-16T00:00:13.868Z,7.73
2023-03-16T00:02:42.450Z,7.78
2023-03-16T00:05:13.930Z,7.85
2023-03-16T00:07:43.075Z,7.76
2023-03-16T00:10:12.652Z,7.82
2023-03-16T00:12:43.693Z,7.84
2023-03-16T00:15:12.503Z,7.86
2023-03-16T00:17:40.609Z,7.85
2023-03-16T00:20:09.948Z,7.88
2023-03-16T00:22:39.341Z,7.86
2023-03-16T00:25:08.576Z,7.85
2023-03-16T00:27:36.789Z,7.84
2023-03-16T00:30:49.044Z,7.83
2023-03-16T00:33:44.062Z,7.75
2023-03-16T00:37:17.561Z,7.77
2023-03-16T00:44:11.552Z,7.67
2023-03-16T01:05:28.626Z,7.64
2023-03-16T01:21:50.167Z,7.67
2023-03-16T01:27:51.746Z,7.63
2023-03-16T01:31:08.448Z,7.60
2023-03-16T01:33:55.096Z,7.55
2023-03-16T01:37:28.747Z,7.53
2023-03-16T01:40:47.081Z,7.47
2023-03-16T01:44:18.415Z,7.45
2023-03-16T01:47:33.277Z,7.43
2023-03-16T02:02:15.545Z,7.56
2023-03-16T02:05:17.528Z,7.58
2023-03-16T02:07:54.946Z,7.61
2023-03-16T02:14:45.804Z,7.71
2023-03-16T02:18:55.623Z,7.72
2023-03-16T02:21:35.516Z,7.73
2023-03-16T02:24:28.558Z,7.79
2023-03-16T02:27:37.540Z,7.79
2023-03-16T02:31:21.150Z,7.81
2023-03-16T02:34:55.600Z,7.77
2023-03-16T02:38:04.991Z,7.82
2023-03-16T02:41:10.451Z,7.76
2023-03-16T02:48:09.967Z,7.72
2023-03-16T02:52:51.174Z,7.72
2023-03-16T02:55:41.654Z,7.75
2023-03-16T03:02:37.641Z,7.88
2023-03-16T03:09:26.951Z,7.86
2023-03-16T03:12:40.237Z,7.89
2023-03-16T03:15:48.069Z,7.78
2023-03-16T03:19:24.629Z,7.78
2023-03-16T03:26:05.009Z,7.76
2023-03-16T03:34:02.109Z,7.86
2023-03-16T04:17:16.838Z,8.32
2023-03-16T04:20:30.040Z,8.37
2023-03-16T04:23:17.852Z,8.49
2023-03-16T04:25:49.324Z,8.56
2023-03-16T04:28:20.190Z,8.57
2023-03-16T04:30:54.643Z,8.49
2023-03-16T04:33:33.328Z,8.65
2023-03-16T04:36:03.614Z,8.71
2023-03-16T04:38:35.295Z,8.71
2023-03-16T04:41:06.903Z,8.70
2023-03-16T04:43:39.460Z,8.70
2023-03-16T04:46:22.868Z,8.75
2023-03-16T04:48:51.278Z,8.71
2023-03-16T04:51:19.666Z,8.63
2023-03-16T04:54:01.046Z,8.72
2023-03-16T04:56:35.346Z,8.71
2023-03-16T04:59:08.248Z,8.72
2023-03-16T05:02:01.000Z,8.72
2023-03-16T05:04:29.505Z,8.67
2023-03-16T05:06:57.973Z,8.70
2023-03-16T05:09:32.876Z,8.66
2023-03-16T05:12:01.177Z,8.72
2023-03-16T05:14:29.661Z,8.78
2023-03-16T05:17:14.975Z,8.83
2023-03-16T05:19:45.350Z,8.83
2023-03-16T05:22:14.742Z,8.91
2023-03-16T05:25:03.412Z,8.70
2023-03-16T05:27:32.351Z,8.86
2023-03-16T05:30:01.272Z,8.82
2023-03-16T05:32:31.733Z,8.91
2023-03-16T05:35:00.097Z,8.82
2023-03-16T05:37:28.924Z,8.87
2023-03-16T05:39:57.772Z,8.95
2023-03-16T05:42:28.052Z,8.93
2023-03-16T05:45:01.866Z,8.90
2023-03-16T05:47:37.442Z,8.77
2023-03-16T05:50:11.399Z,8.91
2023-03-16T05:52:43.123Z,8.96
2023-03-16T05:55:18.950Z,8.90
2023-03-16T05:57:53.796Z,8.88
2023-03-16T06:00:25.834Z,8.88
2023-03-16T06:03:05.029Z,8.89
2023-03-16T06:05:36.385Z,8.88
2023-03-16T06:08:05.745Z,8.95
2023-03-16T06:10:34.605Z,8.96
2023-03-16T06:13:04.989Z,9.04
2023-03-16T06:15:33.323Z,9.05
2023-03-16T06:18:03.887Z,9.09
2023-03-16T06:20:32.294Z,9.19
2023-03-16T06:23:00.982Z,9.15
2023-03-16T06:25:29.448Z,9.15
2023-03-16T06:27:58.132Z,9.24
2023-03-16T06:30:28.639Z,9.18
2023-03-16T06:32:57.234Z,9.15
2023-03-16T06:35:25.597Z,9.16
2023-03-16T06:38:11.901Z,9.20
2023-03-16T06:41:06.545Z,9.22
2023-03-16T06:43:36.284Z,9.25
2023-03-16T06:46:06.905Z,9.20
2023-03-16T06:48:35.406Z,9.32
2023-03-16T06:51:04.691Z,9.33
2023-03-16T06:53:33.009Z,9.34
2023-03-16T06:56:02.408Z,9.37
2023-03-16T06:58:34.330Z,9.27
2023-03-16T07:01:04.172Z,9.42
2023-03-16T07:03:33.924Z,9.32
2023-03-16T07:06:19.235Z,9.53
2023-03-16T07:08:47.693Z,9.49
2023-03-16T07:11:16.337Z,9.69
2023-03-16T07:13:44.924Z,9.56
2023-03-16T07:16:14.663Z,9.71
2023-03-16T07:18:45.306Z,9.78
2023-03-16T07:21:16.338Z,9.82
2023-03-16T07:23:45.912Z,10.00
2023-03-16T07:26:17.529Z,10.01
2023-03-16T07:28:52.634Z,10.01
2023-03-16T07:31:21.609Z,10.06
2023-03-16T07:33:52.160Z,10.08
2023-03-16T07:36:30.277Z,10.09
2023-03-16T07:39:01.556Z,10.19
2023-03-16T07:41:32.576Z,10.24
2023-03-16T07:44:15.462Z,10.29
2023-03-16T07:46:47.902Z,10.18
2023-03-16T07:49:18.561Z,10.06
2023-03-16T07:51:48.793Z,10.15
2023-03-16T07:54:20.365Z,10.33
2023-03-16T07:56:49.965Z,10.40
2023-03-16T07:59:41.632Z,10.54
2023-03-16T08:02:14.763Z,10.54
2023-03-16T08:04:45.575Z,10.43
2023-03-16T08:07:16.913Z,10.55
2023-03-16T08:09:55.340Z,10.36
2023-03-16T08:12:30.022Z,10.69
2023-03-16T08:14:58.653Z,10.50
2023-03-16T08:17:31.173Z,10.43
2023-03-16T08:20:02.588Z,10.58
2023-03-16T08:22:31.110Z,10.73
2023-03-16T08:24:59.492Z,10.67
2023-03-16T08:27:29.642Z,10.87
2023-03-16T08:30:05.073Z,10.57
2023-03-16T08:32:35.507Z,10.57
2023-03-16T08:35:13.585Z,10.56
2023-03-16T08:37:42.634Z,10.78
2023-03-16T08:40:14.248Z,10.82
2023-03-16T08:42:44.490Z,11.07
2023-03-16T08:45:14.972Z,11.13
2023-03-16T08:47:45.855Z,10.90
2023-03-16T08:50:17.176Z,11.12
2023-03-16T08:52:45.512Z,11.00
2023-03-16T08:55:14.041Z,10.93
2023-03-16T08:57:45.124Z,10.79
2023-03-16T09:00:15.752Z,10.90
2023-03-16T09:02:45.765Z,10.95
2023-03-16T09:05:18.404Z,11.04
2023-03-16T09:07:48.881Z,11.05
2023-03-16T09:10:19.067Z,11.07
2023-03-16T09:12:48.502Z,11.29
2023-03-16T09:15:17.824Z,11.11
2023-03-16T09:17:46.485Z,11.20
2023-03-16T09:20:22.857Z,11.28
2023-03-16T09:22:55.653Z,11.43
2023-03-16T09:25:26.466Z,11.52
2023-03-16T09:27:55.761Z,11.67
2023-03-16T09:30:24.280Z,12.03
2023-03-16T09:32:52.916Z,12.25
2023-03-16T09:35:22.902Z,12.41
2023-03-16T09:38:05.629Z,12.22
2023-03-16T09:40:36.149Z,12.20
2023-03-16T09:43:36.165Z,12.12
2023-03-16T09:46:11.260Z,11.90
2023-03-16T09:48:41.209Z,12.01
2023-03-16T09:51:23.289Z,12.22
2023-03-16T09:53:58.338Z,12.12
2023-03-16T09:56:35.375Z,12.34
2023-03-16T09:59:10.598Z,12.22
2023-03-16T10:01:48.351Z,12.40
2023-03-16T10:04:28.229Z,12.16
2023-03-16T10:07:06.548Z,11.94
2023-03-16T10:09:38.958Z,12.08
2023-03-16T10:12:09.153Z,12.01
2023-03-16T10:14:45.826Z,12.05
2023-03-16T10:17:18.143Z,12.41
2023-03-16T10:19:51.384Z,12.16
2023-03-16T10:22:26.656Z,12.15
2023-03-16T10:25:05.740Z,12.25
2023-03-16T10:27:36.691Z,12.38
2023-03-16T10:30:15.031Z,12.35
2023-03-16T10:32:43.542Z,12.59
2023-03-16T10:35:21.475Z,12.31
2023-03-16T10:37:52.978Z,12.51
2023-03-16T10:40:22.319Z,12.55
2023-03-16T10:42:50.780Z,12.52
2023-03-16T10:45:30.656Z,12.25
2023-03-16T10:48:07.978Z,12.36
2023-03-16T10:50:36.589Z,12.28
2023-03-16T10:53:06.300Z,12.30
2023-03-16T10:55:43.752Z,12.25
2023-03-16T10:58:13.406Z,12.56
2023-03-16T11:00:45.417Z,12.50
2023-03-16T11:03:24.359Z,12.36
2023-03-16T11:06:00.744Z,12.38
2023-03-16T11:08:34.115Z,12.26
2023-03-16T11:11:09.799Z,12.36
2023-03-16T11:13:40.685Z,12.31
2023-03-16T11:16:23.194Z,12.42
2023-03-16T11:18:56.588Z,12.35
2023-03-16T11:21:36.381Z,12.38
2023-03-16T11:24:12.179Z,12.49
2023-03-16T11:26:43.027Z,12.50
2023-03-16T11:29:20.420Z,12.44
2023-03-16T11:31:53.590Z,12.55
2023-03-16T11:34:28.392Z,12.62
2023-03-16T11:36:59.975Z,12.57
2023-03-16T11:39:46.258Z,12.60
2023-03-16T11:42:36.158Z,12.51
2023-03-16T11:45:20.345Z,12.61
2023-03-16T11:48:10.999Z,12.34
2023-03-16T11:50:51.824Z,12.10
2023-03-16T11:53:32.881Z,12.13
2023-03-16T11:56:13.055Z,12.17
2023-03-16T11:58:53.533Z,12.04
2023-03-16T12:01:29.720Z,12.16
2023-03-16T12:04:20.610Z,12.18
2023-03-16T12:07:02.442Z,12.14
2023-03-16T12:09:55.988Z,12.16
2023-03-16T12:12:33.048Z,12.19
2023-03-16T12:15:18.505Z,12.10
2023-03-16T12:17:51.084Z,12.11
2023-03-16T12:20:24.789Z,12.04
2023-03-16T12:22:59.504Z,11.96
2023-03-16T12:25:31.973Z,12.07
2023-03-16T12:28:05.775Z,12.07
2023-03-16T12:30:44.008Z,12.13
2023-03-16T12:33:19.744Z,11.91
2023-03-16T12:35:56.591Z,11.93
2023-03-16T12:38:38.781Z,11.92
2023-03-16T12:41:18.096Z,12.04
2023-03-16T12:44:03.078Z,12.00
2023-03-16T12:46:37.099Z,11.93
2023-03-16T12:49:07.392Z,11.76
2023-03-16T12:51:37.114Z,11.93
2023-03-16T12:54:06.261Z,11.71
2023-03-16T12:56:36.823Z,11.61
2023-03-16T12:59:08.000Z,11.75
2023-03-16T13:01:42.528Z,11.92
2023-03-16T13:04:15.212Z,12.03
2023-03-16T13:06:48.439Z,11.96
2023-03-16T13:09:21.658Z,12.14
2023-03-16T13:11:51.304Z,12.32
2023-03-16T13:14:36.401Z,12.35
2023-03-16T13:17:07.142Z,12.36
2023-03-16T13:19:38.004Z,12.47
2023-03-16T13:22:20.966Z,12.47
2023-03-16T13:24:53.902Z,12.52
2023-03-16T13:27:25.182Z,12.50
2023-03-16T13:29:57.439Z,12.69
2023-03-16T13:32:29.641Z,12.94
2023-03-16T13:35:00.713Z,13.03
2023-03-16T13:37:30.472Z,13.16
2023-03-16T13:40:00.577Z,13.10
2023-03-16T13:42:31.604Z,13.00
2023-03-16T13:45:14.247Z,13.11
2023-03-16T13:47:44.261Z,13.08
2023-03-16T13:50:13.875Z,12.89
2023-03-16T13:52:44.629Z,12.94
2023-03-16T13:55:18.184Z,13.00
2023-03-16T13:57:47.526Z,13.17
2023-03-16T14:00:20.319Z,13.27
2023-03-16T14:02:52.521Z,13.29
2023-03-16T14:05:24.583Z,13.62
2023-03-16T14:07:53.285Z,13.66
2023-03-16T14:10:21.993Z,13.81
2023-03-16T14:12:54.045Z,13.99
2023-03-16T14:15:26.085Z,14.00
2023-03-16T14:18:14.121Z,13.68
2023-03-16T14:20:42.806Z,14.14
2023-03-16T14:23:20.189Z,14.13
2023-03-16T14:25:49.734Z,14.26
2023-03-16T14:28:20.269Z,14.24
2023-03-16T14:30:54.459Z,14.05
2023-03-16T14:33:29.924Z,14.18
2023-03-16T14:35:59.682Z,14.18
2023-03-16T14:38:33.840Z,14.25
2023-03-16T14:41:07.634Z,14.35
2023-03-16T14:43:38.511Z,14.29
2023-03-16T14:46:09.088Z,14.33
2023-03-16T14:48:37.498Z,14.32
2023-03-16T14:51:06.402Z,14.03
2023-03-16T14:53:34.425Z,14.19
2023-03-16T14:56:02.541Z,14.34
2023-03-16T14:58:30.611Z,14.23
2023-03-16T15:00:59.603Z,14.38
2023-03-16T15:03:34.109Z,14.33
2023-03-16T15:06:02.843Z,14.23
2023-03-16T15:08:33.721Z,14.44
2023-03-16T15:11:05.783Z,14.28
2023-03-16T15:13:53.189Z,14.15
2023-03-16T15:16:23.121Z,14.15
2023-03-16T15:18:53.021Z,14.12
2023-03-16T15:21:24.223Z,14.04
2023-03-16T15:23:52.305Z,14.15
2023-03-16T15:26:26.234Z,14.18
2023-03-16T15:28:54.510Z,14.23
2023-03-16T15:31:23.211Z,14.28
2023-03-16T15:33:52.732Z,14.32
2023-03-16T15:36:22.889Z,14.41
2023-03-16T15:38:52.987Z,14.30
2023-03-16T15:41:21.293Z,14.33
2023-03-16T15:43:49.390Z,14.09
2023-03-16T15:46:17.953Z,14.09
2023-03-16T15:48:45.986Z,14.20
2023-03-16T15:51:22.754Z,14.34
2023-03-16T15:53:54.484Z,14.59
2023-03-16T15:56:29.274Z,14.52
2023-03-16T15:59:00.448Z,14.67
2023-03-16T16:01:34.884Z,14.64
2023-03-16T16:04:03.485Z,14.71
2023-03-16T16:06:33.003Z,14.78
2023-03-16T16:09:01.728Z,14.88
2023-03-16T16:11:29.893Z,14.98
2023-03-16T16:13:59.386Z,14.85
2023-03-16T16:16:29.716Z,14.67
2023-03-16T16:18:58.067Z,14.64
2023-03-16T16:21:29.028Z,14.63
2023-03-16T16:23:58.630Z,14.78
2023-03-16T16:26:45.218Z,14.96
2023-03-16T16:29:17.071Z,14.87
2023-03-16T16:31:45.751Z,14.88
2023-03-16T16:34:15.504Z,14.87
2023-03-16T16:36:43.627Z,14.95
2023-03-16T16:39:13.084Z,15.03
2023-03-16T16:41:43.262Z,15.00
2023-03-16T16:44:17.991Z,15.19
2023-03-16T16:46:47.121Z,15.34
2023-03-16T16:49:17.182Z,15.17
2023-03-16T16:51:45.316Z,15.10
2023-03-16T16:54:18.141Z,15.06
2023-03-16T16:56:46.686Z,14.92
2023-03-16T16:59:18.195Z,14.80
2023-03-16T17:01:47.043Z,14.70
2023-03-16T17:04:17.361Z,14.58
2023-03-16T17:06:46.873Z,14.66
2023-03-16T17:09:16.300Z,14.57
2023-03-16T17:11:45.077Z,14.39
2023-03-16T17:14:17.970Z,14.32
2023-03-16T17:16:47.625Z,14.25
2023-03-16T17:19:21.691Z,14.19
2023-03-16T17:21:50.242Z,14.12
2023-03-16T17:24:19.905Z,14.05
2023-03-16T17:26:49.890Z,14.03
2023-03-16T17:29:22.541Z,13.99
2023-03-16T17:31:51.467Z,13.94
2023-03-16T17:34:22.437Z,13.94
2023-03-16T17:36:51.198Z,13.96
2023-03-16T17:39:22.532Z,13.80
2023-03-16T17:41:53.436Z,13.75
2023-03-16T17:44:21.677Z,13.73
2023-03-16T17:46:50.079Z,13.70
2023-03-16T17:49:19.994Z,13.68
2023-03-16T17:51:48.184Z,13.74
2023-03-16T17:54:16.502Z,13.75
2023-03-16T17:56:48.624Z,13.74
2023-03-16T17:59:18.968Z,13.74
2023-03-16T18:01:48.258Z,13.69
2023-03-16T18:04:21.178Z,13.63
2023-03-16T18:06:49.510Z,13.54
2023-03-16T18:09:18.808Z,13.52
2023-03-16T18:11:50.438Z,13.53
2023-03-16T18:14:26.447Z,13.40
2023-03-16T18:16:55.655Z,13.34
2023-03-16T18:19:25.838Z,13.17
2023-03-16T18:21:54.765Z,13.24
2023-03-16T18:24:26.707Z,13.21
2023-03-16T18:26:56.556Z,13.16
2023-03-16T18:29:24.692Z,13.08
2023-03-16T18:31:55.567Z,12.96
2023-03-16T18:34:25.298Z,12.95
2023-03-16T18:36:54.984Z,12.95
2023-03-16T18:39:23.255Z,12.94
2023-03-16T18:41:51.337Z,12.92
2023-03-16T18:44:23.397Z,12.85
2023-03-16T18:46:52.957Z,12.95
2023-03-16T18:49:23.902Z,12.85
2023-03-16T18:51:54.624Z,12.77
2023-03-16T18:54:24.891Z,12.80
2023-03-16T18:56:53.915Z,12.77
2023-03-16T18:59:23.393Z,12.78
2023-03-16T19:01:52.487Z,12.69
2023-03-16T19:04:23.869Z,12.74
2023-03-16T19:06:53.716Z,12.69
2023-03-16T19:09:26.643Z,12.64
2023-03-16T19:11:54.973Z,12.69
2023-03-16T19:14:26.739Z,12.72
2023-03-16T19:16:56.155Z,12.70
2023-03-16T19:19:25.180Z,12.69
2023-03-16T19:21:55.148Z,12.73
2023-03-16T19:24:26.790Z,12.72
2023-03-16T19:26:55.128Z,12.63
2023-03-16T19:29:29.919Z,12.76
2023-03-16T19:31:58.745Z,12.67
2023-03-16T19:34:27.225Z,12.71
2023-03-16T19:36:55.354Z,12.76
2023-03-16T19:39:23.385Z,12.70
2023-03-16T19:41:56.622Z,12.73
2023-03-16T19:44:27.889Z,12.79
2023-03-16T19:46:56.497Z,12.75
2023-03-16T19:49:27.075Z,12.76
2023-03-16T19:51:56.332Z,12.75
2023-03-16T19:54:26.093Z,12.78
2023-03-16T19:56:55.960Z,12.87
2023-03-16T19:59:29.869Z,12.71
2023-03-16T20:01:57.949Z,12.70
2023-03-16T20:04:27.836Z,12.74
2023-03-16T20:06:55.969Z,12.84
2023-03-16T20:09:24.094Z,12.85
2023-03-16T20:11:52.169Z,12.85
2023-03-16T20:14:22.661Z,12.94
2023-03-16T20:16:53.187Z,12.95
2023-03-16T20:19:22.414Z,12.93
2023-03-16T20:21:50.590Z,12.81
2023-03-16T20:24:20.706Z,12.84
2023-03-16T20:26:51.567Z,12.87
2023-03-16T20:29:25.258Z,12.87
2023-03-16T20:31:54.970Z,12.74
2023-03-16T20:34:25.807Z,12.78
2023-03-16T20:36:54.481Z,12.78
2023-03-16T20:39:22.622Z,12.79
2023-03-16T20:41:51.637Z,12.77
2023-03-16T20:44:23.601Z,12.65
2023-03-16T20:46:51.733Z,12.69
2023-03-16T20:49:34.149Z,12.69
2023-03-16T20:52:02.286Z,12.63
2023-03-16T20:54:30.313Z,12.60
2023-03-16T20:56:58.341Z,12.70
2023-03-16T20:59:28.241Z,12.69
2023-03-16T21:01:56.465Z,12.67
2023-03-16T21:04:27.868Z,12.64
2023-03-16T21:06:58.161Z,12.62
2023-03-16T21:09:26.517Z,12.65
2023-03-16T21:11:54.707Z,12.67
2023-03-16T21:14:24.997Z,12.64
2023-03-16T21:16:59.468Z,12.69
2023-03-16T21:19:27.658Z,12.71
2023-03-16T21:21:57.090Z,12.72
2023-03-16T21:24:25.270Z,12.72
2023-03-16T21:26:53.986Z,12.66
2023-03-16T21:29:23.727Z,12.75
2023-03-16T21:31:51.942Z,12.70
2023-03-16T21:34:25.266Z,12.73
2023-03-16T21:36:53.443Z,12.70
2023-03-16T21:39:25.337Z,12.78
2023-03-16T21:41:53.906Z,12.74
2023-03-16T21:44:22.773Z,12.73
2023-03-16T21:46:51.085Z,12.69
2023-03-16T21:49:19.783Z,12.62
2023-03-16T21:51:49.803Z,12.77
2023-03-16T21:54:19.212Z,12.81
2023-03-16T21:56:48.952Z,12.77
2023-03-16T21:59:17.105Z,12.73
2023-03-16T22:02:00.777Z,12.76
2023-03-16T22:04:30.024Z,12.79
2023-03-16T22:06:58.066Z,12.74
2023-03-16T22:09:30.098Z,12.81
2023-03-16T22:11:59.726Z,12.82
2023-03-16T22:14:28.214Z,12.81
2023-03-16T22:16:56.628Z,12.81
2023-03-16T22:19:26.348Z,12.85
2023-03-16T22:21:56.641Z,12.79
2023-03-16T22:24:27.162Z,12.87
2023-03-16T22:26:55.772Z,12.92
2023-03-16T22:29:28.119Z,12.87
2023-03-16T22:31:59.373Z,12.77
2023-03-16T22:34:31.390Z,12.80
2023-03-16T22:37:00.880Z,12.91
2023-03-16T22:39:32.440Z,12.86
2023-03-16T22:42:01.144Z,12.87
2023-03-16T22:44:30.922Z,12.86
2023-03-16T22:46:58.946Z,12.88
2023-03-16T22:49:29.029Z,12.89
2023-03-16T22:51:58.770Z,12.96
2023-03-16T22:54:29.587Z,12.96
2023-03-16T22:56:57.866Z,13.00
2023-03-16T22:59:27.816Z,13.03
2023-03-16T23:01:57.631Z,13.01
2023-03-16T23:04:30.089Z,12.99
2023-03-16T23:06:58.557Z,13.03
2023-03-16T23:09:26.855Z,12.99
2023-03-16T23:11:57.522Z,12.91
2023-03-16T23:14:30.050Z,12.79
2023-03-16T23:16:59.775Z,12.81
2023-03-16T23:19:30.810Z,12.84
2023-03-16T23:22:01.524Z,12.81
2023-03-16T23:24:29.546Z,12.76
2023-03-16T23:26:57.695Z,12.85
2023-03-16T23:29:26.257Z,12.74
2023-03-16T23:31:54.815Z,12.64
2023-03-16T23:34:26.684Z,12.67
2023-03-16T23:36:54.713Z,12.65
2023-03-16T23:39:23.251Z,12.64
2023-03-16T23:41:51.740Z,12.56
2023-03-16T23:44:22.715Z,12.58
2023-03-16T23:46:51.521Z,12.56
2023-03-16T23:49:22.894Z,12.48
2023-03-16T23:51:53.684Z,12.45
2023-03-16T23:54:24.207Z,12.56
2023-03-16T23:56:52.596Z,12.50
2023-03-16T23:59:23.372Z,12.58
